Time;durP1;ratioP1;P1;durP2;ratioP2;P2;SDS_P1;SDS_P2;PMS_P1;PMS_P2;Temp;Humidity;BMP_temperature;BMP_pressure;BME280_temperature;BME280_humidity;BME280_pressure;Samples;Min_cycle;Max_cycle;Signal;HPM_P1;HPM_P2
2021/09/21 00:02:17;;;;;;;;;33.50;30.25;;;;;15.33;69.32;101723.47;5035435;28;45329;-59
2021/09/21 00:04:42;;;;;;;;;40.00;30.50;;;;;15.30;69.20;101729.03;5036497;28;45444;-59
2021/09/21 00:07:08;;;;;;;;;38.75;30.75;;;;;15.27;69.17;101737.25;5036712;28;45301;-59
2021/09/21 00:09:33;;;;;;;;;36.50;30.00;;;;;15.25;69.14;101732.09;5035777;28;73178;-60
2021/09/21 00:11:58;;;;;;;;;37.25;30.50;;;;;15.24;69.18;101729.59;5035830;28;64663;-60
2021/09/21 00:14:24;;;;;;;;;32.75;30.50;;;;;15.22;68.76;101735.03;5036379;28;49064;-59
2021/09/21 00:16:49;;;;;;;;;33.75;29.00;;;;;15.19;68.44;101735.31;5035689;28;67835;-59
2021/09/21 00:19:14;;;;;;;;;35.00;31.00;;;;;15.15;68.33;101747.13;5036124;28;49627;-60
2021/09/21 00:21:40;;;;;;;;;39.50;31.50;;;;;15.11;68.23;101735.13;5035917;28;45295;-59
2021/09/21 00:24:05;;;;;;;;;37.00;28.25;;;;;15.08;68.68;101738.06;5036532;28;45352;-60
2021/09/21 00:26:31;;;;;;;;;35.50;29.75;;;;;15.03;68.47;101754.38;5036259;28;45355;-59
2021/09/21 00:28:56;;;;;;;;;33.50;29.00;;;;;15.00;68.61;101765.22;5036169;28;45429;-59
2021/09/21 00:31:22;;;;;;;;;32.25;27.50;;;;;14.94;68.50;101765.75;5036463;28;45324;-60
2021/09/21 00:34:06;;;;;;;;;35.25;28.00;;;;;14.92;68.57;101763.22;5036528;28;45312;-59
2021/09/21 00:36:35;;;;;;;;;38.50;32.25;;;;;14.91;68.22;101763.38;5036468;28;45391;-60
2021/09/21 00:39:00;;;;;;;;;33.00;28.25;;;;;14.89;68.32;101762.66;5036293;28;46275;-60
2021/09/21 00:41:25;;;;;;;;;38.50;31.25;;;;;14.88;68.47;101763.63;5035483;28;61716;-59
2021/09/21 00:43:51;;;;;;;;;36.25;30.25;;;;;14.86;68.36;101760.28;5035401;28;62994;-60
2021/09/21 00:46:16;;;;;;;;;40.25;30.50;;;;;14.83;68.47;101756.13;5035312;28;66585;-59
2021/09/21 00:48:41;;;;;;;;;35.75;30.25;;;;;14.82;68.85;101757.91;5035179;28;73890;-59
2021/09/21 00:51:07;;;;;;;;;36.75;30.00;;;;;14.83;68.61;101759.59;5035227;28;67812;-59
2021/09/21 00:53:32;;;;;;;;;33.75;29.75;;;;;14.82;68.47;101757.91;5002076;28;45290;-59
2021/09/21 00:55:57;;;;;;;;;36.25;29.50;;;;;14.81;68.27;101755.41;5035056;28;65493;-58
2021/09/21 00:58:23;;;;;;;;;42.75;31.75;;;;;14.78;67.94;101751.22;5017407;28;71624;-60
2021/09/21 01:00:48;;;;;;;;;36.75;29.50;;;;;14.74;67.82;101748.97;5035955;28;46488;-59
2021/09/21 01:03:16;;;;;;;;;43.25;32.00;;;;;14.68;68.09;101750.28;5035103;28;67487;-60
2021/09/21 01:05:41;;;;;;;;;34.25;30.25;;;;;14.63;67.87;101748.06;5018024;28;45380;-59
2021/09/21 01:08:06;;;;;;;;;35.50;31.25;;;;;14.58;67.79;101749.41;5035137;28;70075;-60
2021/09/21 01:10:32;;;;;;;;;35.00;29.25;;;;;14.52;68.14;101749.00;5035362;28;65943;-59
2021/09/21 01:12:57;;;;;;;;;37.50;30.50;;;;;14.46;67.99;101740.75;5038406;28;45312;-60
2021/09/21 01:15:23;;;;;;;;;29.50;25.25;;;;;14.42;68.29;101750.75;5021744;28;45477;-59
2021/09/21 01:17:50;;;;;;;;;37.00;30.50;;;;;14.39;68.26;101751.84;5039344;28;45351;-60
2021/09/21 01:20:15;;;;;;;;;33.00;29.50;;;;;14.36;68.18;101757.38;5039489;28;45371;-60
2021/09/21 01:22:41;;;;;;;;;37.00;32.00;;;;;14.31;68.06;101764.88;5039268;28;45806;-59
2021/09/21 01:25:07;;;;;;;;;33.50;29.75;;;;;14.26;68.38;101761.81;5038828;28;60005;-60
2021/09/21 01:27:32;;;;;;;;;36.75;32.50;;;;;14.20;68.79;101763.16;5039295;28;46522;-59
2021/09/21 01:29:57;;;;;;;;;38.75;33.00;;;;;14.18;68.91;101766.91;5039307;28;47173;-60
2021/09/21 01:32:23;;;;;;;;;32.25;30.00;;;;;14.12;68.79;101767.41;5038605;28;63852;-59
2021/09/21 01:34:48;;;;;;;;;33.50;30.00;;;;;14.09;68.76;101772.00;5038741;28;56945;-59
2021/09/21 01:37:14;;;;;;;;;35.00;28.00;;;;;14.03;69.20;101775.13;5039138;28;46199;-59
2021/09/21 01:39:40;;;;;;;;;35.25;30.50;;;;;13.98;69.32;101774.69;5039081;28;45457;-59
2021/09/21 01:42:06;;;;;;;;;40.25;32.00;;;;;13.93;69.16;101777.72;5039117;28;45391;-59
2021/09/21 01:44:31;;;;;;;;;42.75;32.50;;;;;13.90;69.29;101777.13;5038691;28;56728;-59
2021/09/21 01:46:58;;;;;;;;;43.25;32.25;;;;;13.85;69.27;101780.16;5037987;28;73527;-59
2021/09/21 01:49:25;;;;;;;;;43.25;33.00;;;;;13.82;69.05;101780.41;5021117;28;45901;-60
2021/09/21 01:52:03;;;;;;;;;42.50;33.00;;;;;13.77;69.23;101778.16;5039225;28;45449;-59
2021/09/21 01:54:45;;;;;;;;;39.75;32.25;;;;;13.75;69.55;101780.09;5038829;28;45360;-59
2021/09/21 01:59:55;;;;;;;;;41.50;31.75;;;;;13.69;69.80;101775.31;5038778;28;45331;-59
2021/09/21 02:02:20;;;;;;;;;37.25;31.00;;;;;13.65;69.85;101776.53;5037816;28;64297;-59
2021/09/21 02:04:45;;;;;;;;;42.00;34.25;;;;;13.62;69.55;101782.06;5037560;28;66239;-59
2021/09/21 02:07:11;;;;;;;;;44.50;33.00;;;;;13.59;69.97;101782.31;5037716;28;70915;-59
2021/09/21 02:09:36;;;;;;;;;36.00;32.25;;;;;13.58;69.67;101786.72;5037626;28;70604;-60
2021/09/21 02:12:02;;;;;;;;;36.25;30.75;;;;;13.58;69.97;101778.81;5037951;28;60097;-59
2021/09/21 02:14:27;;;;;;;;;39.50;33.25;;;;;13.59;69.53;101784.94;5038593;28;45224;-60
2021/09/21 02:16:54;;;;;;;;;38.25;32.75;;;;;13.58;69.38;101791.19;5037930;28;45310;-60
2021/09/21 02:19:21;;;;;;;;;36.75;31.75;;;;;13.58;69.55;101793.81;5038261;28;45513;-60
2021/09/21 02:21:46;;;;;;;;;39.00;31.75;;;;;13.56;69.81;101796.56;5038111;28;45415;-60
2021/09/21 02:24:11;;;;;;;;;45.50;35.75;;;;;13.54;69.83;101795.03;5037330;28;45316;-59
2021/09/21 02:26:37;;;;;;;;;48.25;38.75;;;;;13.52;69.91;101802.25;5037106;28;71396;-59
2021/09/21 02:29:02;;;;;;;;;44.25;34.00;;;;;13.46;70.22;101796.50;5037239;28;68207;-59
2021/09/21 02:31:27;;;;;;;;;49.25;36.75;;;;;13.43;69.78;101798.56;5037507;28;59679;-59
2021/09/21 02:33:53;;;;;;;;;47.25;38.75;;;;;13.40;70.04;101807.50;5037422;28;63067;-59
2021/09/21 02:36:18;;;;;;;;;46.25;35.50;;;;;13.39;70.26;101811.13;5037837;28;45348;-60
2021/09/21 02:38:44;;;;;;;;;49.00;38.25;;;;;13.36;69.95;101814.00;5038048;28;45345;-59
2021/09/21 02:41:09;;;;;;;;;45.50;32.75;;;;;13.36;70.39;101817.50;5038046;28;45306;-59
2021/09/21 02:43:35;;;;;;;;;47.75;35.50;;;;;13.35;70.27;101818.44;5037376;28;65400;-60
2021/09/21 02:46:01;;;;;;;;;40.25;35.00;;;;;13.35;70.43;101809.69;5037749;28;46407;-59
2021/09/21 02:48:28;;;;;;;;;38.50;34.00;;;;;13.38;70.59;101803.34;5019992;28;45764;-59
2021/09/21 02:50:53;;;;;;;;;45.25;34.00;;;;;13.39;69.91;101803.19;5038030;28;45230;-59
2021/09/21 02:53:19;;;;;;;;;36.50;32.25;;;;;13.40;70.24;101806.69;5019200;28;66853;-60
2021/09/21 02:55:44;;;;;;;;;43.00;35.00;;;;;13.39;70.00;101800.56;5037573;28;46152;-59
2021/09/21 02:58:11;;;;;;;;;45.00;34.25;;;;;13.41;70.06;101800.44;5037629;28;45460;-59
2021/09/21 03:00:37;;;;;;;;;46.00;36.00;;;;;13.41;70.31;101798.66;5037833;28;45358;-59
2021/09/21 03:03:04;;;;;;;;;32.50;28.75;;;;;13.41;70.36;101803.09;5037355;28;53565;-59
2021/09/21 03:05:34;;;;;;;;;42.25;33.25;;;;;13.42;69.92;101795.06;5037511;28;46451;-59
2021/09/21 03:08:04;;;;;;;;;49.50;36.25;;;;;13.44;70.36;101802.88;5037419;28;45274;-59
2021/09/21 03:18:22;;;;;;;;;46.00;36.00;;;;;13.43;69.75;101809.13;5037399;28;45309;-59
2021/09/21 03:20:47;;;;;;;;;48.00;37.75;;;;;13.42;70.13;101818.81;5036541;28;60720;-60
2021/09/21 03:23:12;;;;;;;;;47.50;39.00;;;;;13.41;70.43;101813.66;5036324;28;68440;-59
2021/09/21 03:25:38;;;;;;;;;44.75;34.50;;;;;13.38;70.64;101820.00;5036291;28;63099;-59
2021/09/21 03:28:03;;;;;;;;;47.75;37.00;;;;;13.36;70.75;101817.50;5036903;28;59991;-60
2021/09/21 03:30:29;;;;;;;;;46.00;37.75;;;;;13.37;70.36;101818.31;5037384;28;45509;-60
2021/09/21 03:32:54;;;;;;;;;49.25;39.00;;;;;13.36;70.55;101821.91;5036269;28;67553;-59
2021/09/21 03:35:19;;;;;;;;;47.50;37.00;;;;;13.36;70.10;101824.56;5035910;28;74570;-59
2021/09/21 03:37:45;;;;;;;;;46.75;37.00;;;;;13.35;70.11;101821.09;5036042;28;70608;-59
2021/09/21 03:40:10;;;;;;;;;46.25;37.00;;;;;13.37;70.23;101834.16;5036377;28;62662;-60
2021/09/21 03:42:36;;;;;;;;;44.75;36.50;;;;;13.38;70.08;101835.00;5036309;28;45271;-60
2021/09/21 03:45:01;;;;;;;;;50.25;39.00;;;;;13.39;70.33;101832.22;5036815;28;50816;-59
2021/09/21 03:47:27;;;;;;;;;50.00;39.00;;;;;13.39;70.22;101829.59;5036107;28;65660;-60
2021/09/21 03:49:52;;;;;;;;;48.00;39.00;;;;;13.39;69.92;101824.31;5036982;28;45298;-59
2021/09/21 03:52:17;;;;;;;;;47.50;37.25;;;;;13.41;69.86;101824.22;5035790;28;65409;-59
2021/09/21 03:54:43;;;;;;;;;50.75;37.25;;;;;13.43;70.00;101825.78;5035762;28;69006;-60
2021/09/21 03:57:08;;;;;;;;;49.25;38.50;;;;;13.45;70.09;101831.78;5018095;28;68100;-60
2021/09/21 03:59:34;;;;;;;;;50.50;39.50;;;;;13.46;69.94;101836.09;5035911;28;61067;-59
2021/09/21 04:01:59;;;;;;;;;48.75;39.00;;;;;13.44;69.69;101837.19;5036645;28;45541;-60
2021/09/21 04:04:24;;;;;;;;;48.50;39.00;;;;;13.42;69.90;101842.59;5035714;28;70675;-60
2021/09/21 04:06:50;;;;;;;;;48.50;36.50;;;;;13.42;69.49;101845.22;5035697;28;62302;-59
2021/09/21 04:09:15;;;;;;;;;50.25;38.75;;;;;13.42;69.43;101845.22;5035750;28;67233;-59
2021/09/21 04:11:41;;;;;;;;;50.75;39.50;;;;;13.43;69.36;101849.53;5036597;28;45340;-59
2021/09/21 04:14:06;;;;;;;;;46.25;38.25;;;;;13.45;69.50;101842.34;5035683;28;68671;-59
2021/09/21 04:16:31;;;;;;;;;48.25;37.75;;;;;13.46;69.64;101853.75;5035530;28;67495;-59
2021/09/21 04:18:57;;;;;;;;;46.75;36.75;;;;;13.43;69.38;101852.19;5036314;28;51762;-59
2021/09/21 04:21:23;;;;;;;;;49.50;39.00;;;;;13.43;68.87;101854.81;5036371;28;45471;-60
2021/09/21 04:23:48;;;;;;;;;46.25;39.25;;;;;13.41;69.07;101862.03;5036380;28;45649;-59
2021/09/21 04:26:15;;;;;;;;;47.75;37.25;;;;;13.39;68.95;101863.91;5036196;28;59970;-59
2021/09/21 04:28:40;;;;;;;;;46.00;37.50;;;;;13.33;68.95;101862.63;5018622;28;45328;-60
2021/09/21 04:31:10;;;;;;;;;45.75;36.25;;;;;13.32;68.78;101868.00;5036488;28;45574;-59
2021/09/21 04:33:39;;;;;;;;;48.75;36.00;;;;;13.29;68.79;101873.50;5036082;28;46455;-60
2021/09/21 04:36:09;;;;;;;;;48.75;38.00;;;;;13.26;69.09;101877.25;5036145;28;45442;-59
2021/09/21 04:38:34;;;;;;;;;49.25;38.75;;;;;13.25;69.25;101875.56;5018566;28;45233;-59
2021/09/21 04:41:00;;;;;;;;;50.00;39.75;;;;;13.21;69.53;101874.13;5036244;28;45355;-59
2021/09/21 04:43:25;;;;;;;;;42.50;36.00;;;;;13.20;69.04;101875.09;5035908;28;45354;-59
2021/09/21 04:45:51;;;;;;;;;51.00;39.00;;;;;13.18;69.00;101877.00;5036062;28;45351;-59
2021/09/21 04:48:16;;;;;;;;;45.75;37.00;;;;;13.16;69.02;101877.16;5035432;28;45323;-59
2021/09/21 04:50:42;;;;;;;;;48.50;38.75;;;;;13.12;69.17;101885.41;5035440;28;59948;-59
2021/09/21 04:53:07;;;;;;;;;50.25;39.75;;;;;13.09;69.65;101883.84;5035116;28;69773;-59
2021/09/21 04:55:32;;;;;;;;;50.25;38.00;;;;;13.06;69.71;101874.38;5034958;28;70174;-59
2021/09/21 04:57:58;;;;;;;;;52.00;40.25;;;;;13.05;69.54;101877.13;5035093;28;63651;-59
2021/09/21 05:00:23;;;;;;;;;49.50;38.25;;;;;13.02;69.66;101885.28;5018184;28;45464;-59
2021/09/21 05:02:48;;;;;;;;;19.50;17.75;;;;;12.99;69.01;101882.88;5035751;28;51591;-60
2021/09/21 05:05:14;;;;;;;;;50.75;39.00;;;;;12.96;69.42;101883.13;5034455;28;64359;-60
2021/09/21 05:07:40;;;;;;;;;50.00;40.25;;;;;12.90;69.35;101890.53;5036046;28;45341;-59
2021/09/21 05:10:06;;;;;;;;;50.75;39.00;;;;;12.87;68.51;101884.69;5035646;28;45522;-59
2021/09/21 05:12:31;;;;;;;;;48.50;40.25;;;;;12.83;68.84;101884.06;5035448;28;45469;-59
2021/09/21 05:14:57;;;;;;;;;49.50;37.00;;;;;12.76;68.59;101888.97;5035636;28;46283;-60
2021/09/21 05:17:22;;;;;;;;;48.50;37.50;;;;;12.70;68.78;101893.88;5035656;28;45608;-60
2021/09/21 05:19:48;;;;;;;;;47.75;37.50;;;;;12.67;68.84;101888.84;5034719;28;65501;-59
2021/09/21 05:22:13;;;;;;;;;48.50;37.00;;;;;12.64;68.42;101889.06;5033664;28;51870;-60
2021/09/21 05:24:38;;;;;;;;;45.75;36.75;;;;;12.60;68.38;101894.56;5032908;28;69175;-59
2021/09/21 05:27:04;;;;;;;;;44.00;36.25;;;;;12.56;68.35;101885.22;5034386;28;45488;-59
2021/09/21 05:29:29;;;;;;;;;45.50;34.50;;;;;12.51;68.28;101876.81;5034368;28;45423;-59
2021/09/21 05:31:54;;;;;;;;;49.00;37.75;;;;;12.49;68.49;101891.91;5033269;28;71032;-60
2021/09/21 05:34:20;;;;;;;;;42.50;36.00;;;;;12.49;68.41;101897.16;5034111;28;45594;-60
2021/09/21 05:36:45;;;;;;;;;44.50;34.50;;;;;12.47;68.30;101899.91;5033957;28;56669;-59
2021/09/21 05:39:14;;;;;;;;;50.00;39.50;;;;;12.45;68.76;101901.00;5035094;28;46413;-60
2021/09/21 05:41:40;;;;;;;;;42.75;35.50;;;;;12.40;68.54;101911.03;5035091;28;47453;-59
2021/09/21 05:44:05;;;;;;;;;46.25;36.75;;;;;12.34;68.64;101916.75;5035245;28;45383;-59
2021/09/21 05:46:30;;;;;;;;;47.50;36.00;;;;;12.30;68.45;101919.63;5034654;28;60402;-59
2021/09/21 05:48:59;;;;;;;;;45.50;35.75;;;;;12.28;68.67;101926.78;5034722;28;66702;-59
2021/09/21 05:51:25;;;;;;;;;49.00;37.50;;;;;12.28;68.83;101924.16;5035403;28;45530;-59
2021/09/21 05:53:50;;;;;;;;;46.25;34.00;;;;;12.27;68.46;101940.09;5035143;28;45344;-60
2021/09/21 05:56:16;;;;;;;;;47.50;38.00;;;;;12.26;68.38;101939.25;5034305;28;68187;-60
2021/09/21 05:58:42;;;;;;;;;47.75;36.25;;;;;12.25;68.35;101942.84;5035374;28;47177;-59
2021/09/21 06:01:07;;;;;;;;;35.50;31.50;;;;;12.25;68.27;101934.94;5038477;28;46335;-59
2021/09/21 06:03:33;;;;;;;;;42.00;33.25;;;;;12.26;68.49;101946.31;5037609;28;62182;-59
2021/09/21 06:05:59;;;;;;;;;39.00;34.25;;;;;12.27;68.29;101948.84;5038215;28;45527;-60
2021/09/21 06:08:24;;;;;;;;;48.25;36.00;;;;;12.27;68.14;101956.75;5038648;28;45490;-60
2021/09/21 06:10:49;;;;;;;;;45.50;35.25;;;;;12.29;68.38;101954.84;5038260;28;45423;-59
2021/09/21 06:13:15;;;;;;;;;43.75;33.25;;;;;12.28;68.17;101958.44;5038578;28;45434;-59
2021/09/21 06:15:40;;;;;;;;;34.25;31.00;;;;;12.28;68.14;101960.22;5038316;28;45302;-59
2021/09/21 06:18:06;;;;;;;;;36.00;31.00;;;;;12.30;68.20;101966.22;5038179;28;45286;-60
2021/09/21 06:20:31;;;;;;;;;38.25;31.25;;;;;12.34;67.80;101972.09;5020201;28;45396;-59
2021/09/21 06:22:56;;;;;;;;;42.75;34.00;;;;;12.36;67.67;101970.19;5037389;28;67536;-60
2021/09/21 06:25:22;;;;;;;;;49.00;38.00;;;;;12.38;67.78;101968.28;5037634;28;61338;-59
2021/09/21 06:27:47;;;;;;;;;46.75;33.50;;;;;12.42;67.63;101975.03;5038322;28;45210;-59
2021/09/21 06:30:13;;;;;;;;;47.00;37.50;;;;;12.44;66.99;101981.03;5037464;28;46287;-60
2021/09/21 06:32:39;;;;;;;;;39.50;33.50;;;;;12.46;67.34;101976.47;5037998;28;45273;-60
2021/09/21 06:35:05;;;;;;;;;39.00;32.00;;;;;12.49;66.99;101971.00;5038095;28;45229;-60
2021/09/21 06:37:32;;;;;;;;;44.25;33.00;;;;;12.49;66.93;101978.03;5037897;28;45491;-59
2021/09/21 06:39:58;;;;;;;;;36.00;31.00;;;;;12.48;65.92;101982.50;5020233;28;46304;-60
2021/09/21 06:42:23;;;;;;;;;27.50;27.50;;;;;12.47;66.53;101979.00;5037820;28;45319;-60
2021/09/21 06:44:48;;;;;;;;;29.25;26.75;;;;;12.51;66.36;101995.44;5038059;28;45332;-59
2021/09/21 06:47:14;;;;;;;;;32.00;28.75;;;;;12.53;66.60;102000.59;5037170;28;62010;-60
2021/09/21 06:49:39;;;;;;;;;33.75;28.00;;;;;12.54;66.00;102010.19;5037772;28;46081;-59
2021/09/21 06:52:05;;;;;;;;;37.25;32.25;;;;;12.54;66.21;102013.69;5036164;28;45915;-60
2021/09/21 06:54:30;;;;;;;;;30.00;28.00;;;;;12.60;65.94;102007.97;5003558;28;45505;-59
2021/09/21 06:56:56;;;;;;;;;39.50;34.25;;;;;12.68;65.94;102015.28;5019984;28;45562;-60
2021/09/21 06:59:21;;;;;;;;;35.25;29.25;;;;;12.76;66.02;102019.97;5036855;28;69399;-60
2021/09/21 07:01:46;;;;;;;;;40.50;32.25;;;;;12.84;65.33;102012.34;5037454;28;54353;-59
2021/09/21 07:04:13;;;;;;;;;34.00;31.25;;;;;12.95;65.29;102018.63;5037799;28;45337;-60
2021/09/21 07:06:39;;;;;;;;;32.00;27.75;;;;;13.06;64.95;102023.94;5037395;28;45229;-60
2021/09/21 07:09:04;;;;;;;;;30.00;28.50;;;;;13.16;64.49;102034.63;5018877;28;72514;-59
2021/09/21 07:11:29;;;;;;;;;35.75;28.25;;;;;13.21;64.41;102035.97;5037118;28;45340;-59
2021/09/21 07:13:55;;;;;;;;;37.50;31.25;;;;;13.28;63.81;102030.22;5036997;28;61766;-60
2021/09/21 07:16:20;;;;;;;;;30.25;28.75;;;;;13.35;64.05;102034.06;5037396;28;49981;-59
2021/09/21 07:18:46;;;;;;;;;32.25;28.50;;;;;13.45;63.71;102039.53;5019556;28;45479;-59
2021/09/21 07:21:11;;;;;;;;;29.00;25.00;;;;;13.54;62.94;102036.16;5037311;28;45432;-59
2021/09/21 07:23:36;;;;;;;;;29.00;25.25;;;;;13.64;62.97;102034.50;5037083;28;57183;-60
2021/09/21 07:26:02;;;;;;;;;30.50;24.50;;;;;13.76;62.43;102031.88;5036756;28;60453;-60
2021/09/21 07:28:27;;;;;;;;;31.25;24.25;;;;;13.88;62.04;102037.97;5037377;28;45996;-60
2021/09/21 07:30:53;;;;;;;;;30.25;26.50;;;;;13.99;62.14;102031.88;5018639;28;64936;-59
2021/09/21 07:33:18;;;;;;;;;25.50;21.50;;;;;14.09;61.54;102043.34;5036746;28;52709;-60
2021/09/21 07:35:44;;;;;;;;;27.00;23.00;;;;;14.23;60.97;102048.38;5036535;28;47021;-60
2021/09/21 07:38:09;;;;;;;;;26.00;24.75;;;;;14.34;60.75;102055.44;5043353;28;46120;-60
2021/09/21 07:40:35;;;;;;;;;26.75;23.00;;;;;14.45;60.75;102066.97;5054027;28;57538;-60
2021/09/21 07:43:04;;;;;;;;;28.50;26.25;;;;;14.59;60.19;102058.78;5035801;28;45305;-60
2021/09/21 07:45:30;;;;;;;;;23.00;22.50;;;;;14.74;60.31;102067.28;5055112;28;45599;-60
2021/09/21 07:47:55;;;;;;;;;26.75;25.25;;;;;14.90;59.93;102064.22;5053946;28;68186;-60
2021/09/21 07:50:20;;;;;;;;;24.25;20.50;;;;;15.03;58.85;102055.25;5051865;28;64776;-59
2021/09/21 07:52:46;;;;;;;;;22.50;19.00;;;;;15.17;58.91;102057.59;5036797;28;45837;-59
2021/09/21 07:55:11;;;;;;;;;20.00;19.50;;;;;15.33;57.83;102051.84;5054604;28;45561;-60
2021/09/21 07:57:38;;;;;;;;;19.50;19.00;;;;;15.45;57.23;102049.94;5054611;28;45434;-60
2021/09/21 08:00:06;;;;;;;;;16.75;14.00;;;;;15.61;56.90;102048.63;5053909;28;45857;-59
2021/09/21 08:02:31;;;;;;;;;20.00;20.00;;;;;15.77;56.96;102056.94;5054151;28;45462;-59
2021/09/21 08:04:57;;;;;;;;;22.50;20.75;;;;;15.95;55.79;102064.28;5051605;28;66524;-60
2021/09/21 08:07:22;;;;;;;;;19.00;19.00;;;;;16.04;55.51;102065.31;5053263;28;67695;-59
2021/09/21 08:09:47;;;;;;;;;19.50;18.50;;;;;16.20;55.30;102070.09;5052352;28;53596;-61
2021/09/21 08:12:14;;;;;;;;;13.75;13.00;;;;;16.36;55.17;102075.72;5053161;28;64703;-60
2021/09/21 08:14:39;;;;;;;;;21.00;18.50;;;;;16.51;54.63;102073.50;5054584;28;45383;-60
2021/09/21 08:17:05;;;;;;;;;17.25;15.00;;;;;16.65;54.02;102074.91;5036017;28;45481;-60
2021/09/21 08:19:31;;;;;;;;;13.00;13.00;;;;;16.80;53.30;102072.69;5053038;28;45724;-60
2021/09/21 08:21:56;;;;;;;;;17.75;15.00;;;;;16.96;52.74;102071.28;5052657;28;45514;-60
2021/09/21 08:24:22;;;;;;;;;15.75;14.75;;;;;17.06;52.34;102072.97;5054071;28;45344;-59
2021/09/21 08:26:47;;;;;;;;;21.50;18.00;;;;;17.17;52.37;102079.13;5053027;28;70658;-60
2021/09/21 08:29:13;;;;;;;;;12.50;11.50;;;;;17.29;50.67;102075.34;5052313;28;68647;-59
2021/09/21 08:31:39;;;;;;;;;20.75;13.75;;;;;17.35;50.46;102079.22;5053575;28;45356;-60
2021/09/21 08:34:05;;;;;;;;;15.50;14.50;;;;;17.37;50.37;102085.25;5052431;28;45362;-60
2021/09/21 08:36:30;;;;;;;;;13.25;12.25;;;;;17.35;50.01;102089.84;5053887;28;46046;-60
2021/09/21 08:38:56;;;;;;;;;12.50;10.75;;;;;17.38;50.46;102086.91;5054291;28;46138;-60
2021/09/21 08:41:24;;;;;;;;;14.50;12.25;;;;;17.49;49.82;102086.75;5052386;28;45526;-60
2021/09/21 08:43:50;;;;;;;;;12.00;10.25;;;;;17.54;49.79;102086.31;5053164;28;45417;-60
2021/09/21 08:46:15;;;;;;;;;13.00;12.50;;;;;17.61;48.89;102089.25;5053487;28;46063;-59
2021/09/21 08:48:40;;;;;;;;;10.50;10.50;;;;;17.70;49.31;102090.19;5052710;28;70896;-59
2021/09/21 08:51:06;;;;;;;;;16.75;15.25;;;;;17.78;48.80;102087.66;5052331;28;62752;-60
2021/09/21 08:53:31;;;;;;;;;11.00;10.25;;;;;17.86;49.09;102084.25;5051599;28;66300;-60
2021/09/21 08:55:56;;;;;;;;;10.25;10.00;;;;;17.94;49.00;102095.84;5033726;28;62863;-60
2021/09/21 08:58:24;;;;;;;;;15.25;13.75;;;;;18.06;48.73;102087.69;5034677;28;45544;-60
2021/09/21 09:00:49;;;;;;;;;12.25;11.00;;;;;18.17;48.29;102092.81;5053277;28;45320;-60
2021/09/21 09:03:15;;;;;;;;;10.75;10.75;;;;;18.29;48.29;102089.97;5052048;28;67691;-60
2021/09/21 09:05:47;;;;;;;;;11.75;11.50;;;;;18.43;48.05;102096.59;5053547;28;45529;-60
2021/09/21 09:08:13;;;;;;;;;23.50;20.25;;;;;18.58;48.55;102095.09;5052231;28;46012;-60
2021/09/21 09:10:38;;;;;;;;;17.75;13.75;;;;;18.73;48.25;102092.75;5035902;28;45636;-60
2021/09/21 09:13:06;;;;;;;;;8.75;6.75;;;;;18.94;47.91;102092.44;5053467;28;45649;-60
2021/09/21 09:15:31;;;;;;;;;15.75;13.75;;;;;19.11;45.86;102088.09;5035178;28;46276;-60
2021/09/21 09:18:02;;;;;;;;;14.25;10.50;;;;;19.14;45.73;102094.97;5052353;28;66417;-60
2021/09/21 09:20:34;;;;;;;;;15.00;13.25;;;;;19.16;45.94;102095.63;5035518;28;45265;-60
2021/09/21 09:22:59;;;;;;;;;13.25;13.25;;;;;19.24;45.50;102097.53;5052922;28;45604;-61
2021/09/21 09:25:25;;;;;;;;;13.25;11.25;;;;;19.32;46.20;102094.91;5034780;28;45661;-60
2021/09/21 09:27:50;;;;;;;;;14.25;13.25;;;;;19.42;45.83;102098.31;5053061;28;45514;-60
2021/09/21 09:30:19;;;;;;;;;11.00;10.00;;;;;19.50;45.73;102099.38;5053108;28;60802;-60
2021/09/21 09:32:50;;;;;;;;;12.50;10.00;;;;;19.65;45.58;102103.09;5053289;28;45502;-61
2021/09/21 09:35:45;;;;;;;;;16.00;13.75;;;;;19.90;44.67;102111.28;5038506;28;45436;-60
2021/09/21 09:38:15;;;;;;;;;14.00;10.75;;;;;19.92;44.56;102109.28;5042885;28;46039;-60
2021/09/21 09:40:46;;;;;;;;;16.50;15.25;;;;;19.96;43.60;102105.31;5055536;28;45407;-61
2021/09/21 09:43:15;;;;;;;;;17.25;17.25;;;;;19.97;43.37;102103.47;5056070;28;45412;-60
2021/09/21 09:45:42;;;;;;;;;13.25;12.00;;;;;19.92;43.73;102113.78;5056366;28;46215;-60
2021/09/21 09:48:10;;;;;;;;;13.50;12.75;;;;;19.93;43.50;102115.44;5038085;28;46071;-60
2021/09/21 09:50:37;;;;;;;;;12.25;11.00;;;;;20.00;44.50;102117.34;5038613;28;45541;-60
2021/09/21 09:53:12;;;;;;;;;17.00;15.50;;;;;20.16;44.50;102123.72;5038322;28;45569;-61
2021/09/21 09:55:38;;;;;;;;;14.00;13.75;;;;;20.34;44.04;102112.13;5056113;28;45455;-60
2021/09/21 09:58:04;;;;;;;;;14.00;13.75;;;;;20.51;42.71;102118.31;5037811;28;46030;-60
2021/09/21 10:00:29;;;;;;;;;18.25;14.50;;;;;20.61;42.39;102113.69;5021467;28;45514;-61
2021/09/21 10:02:55;;;;;;;;;14.50;13.50;;;;;20.70;42.14;102111.84;5055359;28;45288;-61
2021/09/21 10:05:21;;;;;;;;;14.00;12.25;;;;;20.85;42.76;102110.22;5056104;28;46491;-61
2021/09/21 10:07:46;;;;;;;;;17.75;16.50;;;;;20.92;42.05;102115.75;5055900;28;45223;-61
2021/09/21 10:10:12;;;;;;;;;18.00;16.00;;;;;20.89;40.98;102116.09;5056623;28;45443;-60
2021/09/21 10:12:37;;;;;;;;;16.50;14.50;;;;;20.86;41.75;102111.09;5056080;28;45510;-61
2021/09/21 10:15:04;;;;;;;;;18.00;15.00;;;;;20.84;41.29;102111.22;5021450;28;45475;-60
2021/09/21 10:17:33;;;;;;;;;16.75;13.75;;;;;20.85;41.66;102110.22;5021265;28;45821;-61
2021/09/21 10:19:58;;;;;;;;;15.00;13.00;;;;;20.90;42.79;102121.25;5038221;28;45486;-61
2021/09/21 10:22:25;;;;;;;;;17.75;17.25;;;;;21.03;41.62;102111.91;5054657;28;66956;-61
2021/09/21 10:24:51;;;;;;;;;17.25;15.75;;;;;21.06;40.64;102106.25;5055985;28;45547;-61
2021/09/21 10:27:17;;;;;;;;;22.75;18.25;;;;;21.05;41.18;102104.56;5056002;28;45501;-61
2021/09/21 10:29:43;;;;;;;;;17.75;14.75;;;;;21.04;41.26;102119.75;5055834;28;45437;-61
2021/09/21 10:32:12;;;;;;;;;15.00;12.25;;;;;21.03;42.25;102114.59;5054911;28;62445;-60
2021/09/21 10:34:40;;;;;;;;;15.75;14.25;;;;;21.10;42.07;102120.94;5055697;28;46158;-61
2021/09/21 10:37:05;;;;;;;;;18.75;17.00;;;;;21.24;42.25;102123.91;5037675;28;45895;-60
2021/09/21 10:39:30;;;;;;;;;18.75;18.25;;;;;21.35;41.18;102107.53;5054890;28;63559;-61
2021/09/21 10:41:58;;;;;;;;;20.25;18.50;;;;;21.41;40.76;102117.56;5055199;28;65945;-60
2021/09/21 10:44:23;;;;;;;;;17.75;16.50;;;;;21.44;40.97;102119.91;5054616;28;46223;-60
2021/09/21 10:47:05;;;;;;;;;15.75;14.50;;;;;21.43;40.77;102120.91;5055521;28;45822;-61
2021/09/21 10:49:41;;;;;;;;;23.50;20.25;;;;;21.40;40.68;102118.56;5055478;28;45220;-61
2021/09/21 10:52:07;;;;;;;;;19.00;16.00;;;;;21.34;41.63;102124.59;5054867;28;45427;-60
2021/09/21 10:54:35;;;;;;;;;18.50;16.75;;;;;21.29;41.28;102127.78;5054865;28;45512;-60
2021/09/21 10:57:11;;;;;;;;;21.00;15.75;;;;;21.26;41.88;102119.25;5055419;28;45879;-61
2021/09/21 10:59:38;;;;;;;;;15.25;14.00;;;;;21.24;42.04;102122.09;5055446;28;45492;-61
2021/09/21 11:02:07;;;;;;;;;20.25;18.25;;;;;21.12;41.90;102121.59;5055270;28;45462;-61
2021/09/21 11:04:37;;;;;;;;;16.25;14.75;;;;;20.95;41.29;102119.94;5037004;28;46535;-61
2021/09/21 11:07:03;;;;;;;;;17.75;17.00;;;;;20.78;42.37;102125.25;5055245;28;45438;-60
2021/09/21 11:09:28;;;;;;;;;17.50;15.00;;;;;20.64;43.40;102124.03;5054754;28;54940;-60
2021/09/21 11:12:12;;;;;;;;;17.00;15.50;;;;;20.57;43.11;102123.88;5055941;28;45391;-60
2021/09/21 11:14:39;;;;;;;;;16.75;15.75;;;;;20.57;42.63;102113.19;5053575;28;46357;-60
2021/09/21 11:17:05;;;;;;;;;20.00;15.25;;;;;20.57;43.83;102112.34;5037161;28;45952;-61